Time;durP1;ratioP1;P1;durP2;ratioP2;P2;SDS_P1;SDS_P2;PMS_P1;PMS_P2;Temp;Humidity;BMP_temperature;BMP_pressure;BME280_temperature;BME280_humidity;BME280_pressure;Samples;Min_cycle;Max_cycle;Signal;HPM_P1;HPM_P2
2023/07/31 00:02:01;;;;;;;7.28;6.50;;;16.20;99.90;;;;;;5114608;27;20489;-42
2023/07/31 00:04:26;;;;;;;8.48;7.63;;;16.10;99.90;;;;;;5113750;27;20051;-40
2023/07/31 00:06:52;;;;;;;10.63;8.40;;;16.10;99.90;;;;;;5113844;27;20055;-42
2023/07/31 00:09:18;;;;;;;8.93;6.88;;;16.00;99.90;;;;;;5108564;28;20559;-43
2023/07/31 00:11:43;;;;;;;7.60;6.72;;;16.00;99.90;;;;;;5107773;27;20047;-43
2023/07/31 00:14:09;;;;;;;10.93;6.95;;;15.90;99.90;;;;;;5134941;27;20087;-41
2023/07/31 00:16:35;;;;;;;10.18;5.65;;;15.90;99.90;;;;;;5134767;27;20473;-41
2023/07/31 00:19:01;;;;;;;10.07;5.68;;;15.90;99.90;;;;;;5134334;27;20135;-42
2023/07/31 00:21:26;;;;;;;10.85;7.40;;;15.90;99.90;;;;;;5128644;27;20062;-40
2023/07/31 00:23:52;;;;;;;9.18;7.20;;;15.90;99.90;;;;;;5088679;27;20066;-42
2023/07/31 00:26:18;;;;;;;7.55;6.57;;;15.90;99.90;;;;;;5107057;27;20046;-41
2023/07/31 00:28:43;;;;;;;7.57;6.88;;;15.90;99.90;;;;;;5134430;27;20046;-41
2023/07/31 00:31:09;;;;;;;11.98;7.00;;;15.90;99.90;;;;;;5128126;27;20417;-41
2023/07/31 00:33:36;;;;;;;6.78;5.13;;;15.80;99.90;;;;;;5114430;27;20040;-41
2023/07/31 00:36:02;;;;;;;7.60;6.80;;;15.80;99.90;;;;;;5114623;27;20622;-40
2023/07/31 00:38:27;;;;;;;9.30;5.03;;;15.80;99.90;;;;;;5113401;27;20047;-41
2023/07/31 00:40:53;;;;;;;8.63;6.05;;;15.80;99.90;;;;;;5088841;28;20160;-43
2023/07/31 00:43:19;;;;;;;5.63;4.75;;;16.00;99.90;;;;;;5114500;27;20054;-41
2023/07/31 00:45:44;;;;;;;6.85;5.13;;;16.00;99.90;;;;;;5118906;27;20124;-40
2023/07/31 00:48:11;;;;;;;6.05;5.07;;;15.90;99.90;;;;;;5117105;27;20047;-41
2023/07/31 00:50:37;;;;;;;8.25;4.20;;;15.90;99.90;;;;;;5099994;27;20043;-41
2023/07/31 00:53:03;;;;;;;5.65;3.28;;;16.00;99.90;;;;;;5118499;27;20059;-41
2023/07/31 00:55:30;;;;;;;6.00;2.75;;;16.00;99.90;;;;;;5118247;27;20035;-41
2023/07/31 00:57:56;;;;;;;4.32;1.73;;;15.90;99.90;;;;;;5116974;27;20130;-40
2023/07/31 01:00:22;;;;;;;3.00;1.77;;;15.90;99.90;;;;;;5117569;27;20047;-41
2023/07/31 01:02:50;;;;;;;4.25;1.85;;;16.10;99.90;;;;;;5117692;27;20046;-41
2023/07/31 01:05:17;;;;;;;3.70;1.40;;;16.00;99.90;;;;;;5107298;27;20126;-42
2023/07/31 01:07:55;;;;;;;5.22;1.70;;;16.10;99.90;;;;;;5137744;27;20102;-41
2023/07/31 01:10:24;;;;;;;4.03;2.00;;;16.00;99.90;;;;;;5114112;27;20043;-43
2023/07/31 01:12:53;;;;;;;6.28;2.13;;;16.10;99.90;;;;;;5117439;27;20223;-41
2023/07/31 01:15:18;;;;;;;4.15;2.25;;;16.20;99.90;;;;;;5098939;27;20106;-41
2023/07/31 01:17:44;;;;;;;3.42;1.90;;;16.10;99.90;;;;;;5097972;27;20524;-41
2023/07/31 01:20:20;;;;;;;5.45;2.00;;;16.10;99.90;;;;;;5117024;27;20493;-40
2023/07/31 01:22:49;;;;;;;4.72;1.90;;;16.00;99.90;;;;;;5098342;27;20872;-40
2023/07/31 01:25:20;;;;;;;5.88;2.17;;;16.10;99.90;;;;;;5108096;27;20054;-41
2023/07/31 01:28:09;;;;;;;5.05;1.90;;;16.10;99.90;;;;;;5115988;27;20051;-40
2023/07/31 01:30:41;;;;;;;5.03;2.35;;;16.10;99.90;;;;;;5117757;27;20054;-41
2023/07/31 01:33:07;;;;;;;3.83;1.77;;;16.10;99.90;;;;;;5099666;27;20082;-40
2023/07/31 01:35:37;;;;;;;3.78;2.25;;;16.10;99.90;;;;;;5117560;27;20044;-41
2023/07/31 01:38:04;;;;;;;6.03;2.45;;;16.20;99.90;;;;;;5116309;27;20468;-41
2023/07/31 01:40:30;;;;;;;3.28;1.80;;;16.20;99.90;;;;;;5117765;27;20130;-40
2023/07/31 01:42:55;;;;;;;2.85;2.05;;;16.20;99.90;;;;;;5099103;27;20095;-40
2023/07/31 01:45:21;;;;;;;5.05;2.53;;;16.10;99.90;;;;;;5098770;27;20134;-42
2023/07/31 01:47:47;;;;;;;3.03;2.10;;;16.20;99.90;;;;;;5098635;27;20078;-41
2023/07/31 01:50:12;;;;;;;3.58;2.15;;;16.10;99.90;;;;;;5117369;27;20050;-41
2023/07/31 01:52:38;;;;;;;3.35;1.90;;;16.20;99.90;;;;;;5098562;27;20364;-41
2023/07/31 01:55:04;;;;;;;4.38;2.58;;;16.20;99.90;;;;;;5115878;27;20313;-42
2023/07/31 01:57:30;;;;;;;3.45;2.15;;;16.10;99.90;;;;;;5117427;27;20078;-42
2023/07/31 01:59:55;;;;;;;5.60;2.40;;;16.10;99.90;;;;;;5115728;27;20055;-41
2023/07/31 02:02:25;;;;;;;4.68;3.35;;;16.10;99.90;;;;;;5107248;27;20375;-41
2023/07/31 02:04:51;;;;;;;5.45;2.33;;;16.10;99.90;;;;;;5111850;27;20336;-41
2023/07/31 02:07:16;;;;;;;4.63;2.50;;;16.10;99.90;;;;;;5104244;27;20043;-40
2023/07/31 02:09:42;;;;;;;4.13;2.60;;;16.10;99.90;;;;;;5109608;27;20043;-41
2023/07/31 02:12:08;;;;;;;7.60;3.20;;;16.10;99.90;;;;;;5116448;27;20043;-42
2023/07/31 02:14:34;;;;;;;4.30;2.63;;;16.00;99.90;;;;;;5116251;27;20046;-40
2023/07/31 02:17:00;;;;;;;4.55;2.13;;;16.20;99.90;;;;;;5116362;27;20575;-41
2023/07/31 02:19:26;;;;;;;4.25;2.60;;;16.10;99.90;;;;;;5097044;27;20049;-41
2023/07/31 02:21:52;;;;;;;4.88;2.80;;;16.10;99.90;;;;;;5097733;27;20046;-42
2023/07/31 02:24:17;;;;;;;4.45;2.70;;;16.20;99.90;;;;;;5111129;27;20038;-42
2023/07/31 02:26:43;;;;;;;4.15;2.40;;;16.10;99.90;;;;;;5126730;27;20407;-43
2023/07/31 02:29:09;;;;;;;7.13;3.10;;;16.20;99.90;;;;;;5132969;27;20030;-42
2023/07/31 02:31:34;;;;;;;6.40;2.75;;;16.20;99.90;;;;;;5137851;27;20049;-41
2023/07/31 02:34:00;;;;;;;8.35;2.88;;;16.10;99.90;;;;;;5137921;27;20042;-42
2023/07/31 02:36:26;;;;;;;4.43;2.28;;;16.10;99.90;;;;;;5138411;27;21071;-42
2023/07/31 02:38:51;;;;;;;6.20;2.88;;;16.10;99.90;;;;;;5136358;27;20401;-41
2023/07/31 02:41:17;;;;;;;6.95;2.25;;;16.10;99.90;;;;;;5137611;27;20085;-42
2023/07/31 02:43:43;;;;;;;4.18;2.35;;;16.20;99.90;;;;;;5136628;27;20047;-43
2023/07/31 02:46:08;;;;;;;5.53;1.98;;;16.20;99.90;;;;;;5136425;27;20045;-42
2023/07/31 02:48:34;;;;;;;6.30;2.10;;;16.10;99.90;;;;;;5134946;27;20546;-41
2023/07/31 02:51:00;;;;;;;7.35;2.10;;;16.10;99.90;;;;;;5136768;27;20552;-42
2023/07/31 02:53:25;;;;;;;4.18;2.45;;;16.20;99.90;;;;;;5118347;27;20054;-40
2023/07/31 02:55:51;;;;;;;5.63;2.30;;;16.00;99.90;;;;;;5136566;27;20579;-40
2023/07/31 02:58:16;;;;;;;3.80;2.20;;;16.00;99.90;;;;;;5134959;27;20441;-42
2023/07/31 03:00:45;;;;;;;3.45;1.85;;;16.10;99.90;;;;;;5135762;27;20043;-42
2023/07/31 03:03:11;;;;;;;3.63;2.22;;;16.10;99.90;;;;;;5131939;27;20142;-42
2023/07/31 03:05:37;;;;;;;2.95;1.65;;;16.00;99.90;;;;;;5126702;27;20069;-42
2023/07/31 03:08:03;;;;;;;2.00;1.50;;;15.80;99.90;;;;;;5128616;27;20146;-42
2023/07/31 03:10:29;;;;;;;4.13;1.80;;;15.90;99.90;;;;;;5124037;27;20429;-42
2023/07/31 03:12:55;;;;;;;2.40;1.38;;;15.80;99.90;;;;;;5136615;27;20050;-42
2023/07/31 03:15:20;;;;;;;2.35;1.60;;;15.70;99.90;;;;;;5135811;27;20153;-42
2023/07/31 03:17:46;;;;;;;3.72;1.60;;;15.70;99.90;;;;;;5085804;27;20451;-43
2023/07/31 03:20:12;;;;;;;2.97;1.60;;;15.80;99.90;;;;;;5115299;27;20059;-42
2023/07/31 03:22:37;;;;;;;2.55;1.27;;;15.80;99.90;;;;;;5096606;27;20058;-41
2023/07/31 03:25:04;;;;;;;1.90;1.50;;;15.80;99.90;;;;;;5088743;27;20055;-41
2023/07/31 03:27:29;;;;;;;3.67;2.03;;;15.80;99.90;;;;;;5115886;27;20060;-41
2023/07/31 03:29:55;;;;;;;4.15;2.92;;;15.70;99.90;;;;;;5114801;27;20042;-41
2023/07/31 03:32:21;;;;;;;3.80;2.90;;;15.70;99.90;;;;;;5115223;27;20062;-42
2023/07/31 03:34:46;;;;;;;5.30;3.28;;;15.80;99.90;;;;;;5115897;27;20118;-42
2023/07/31 03:37:12;;;;;;;6.55;3.30;;;15.70;99.90;;;;;;5115382;27;20451;-42
2023/07/31 03:39:38;;;;;;;4.30;2.70;;;15.70;99.90;;;;;;5114152;27;20035;-43
2023/07/31 03:42:04;;;;;;;5.38;3.25;;;15.80;99.90;;;;;;5115781;27;20082;-42
2023/07/31 03:44:30;;;;;;;4.93;2.75;;;15.80;99.90;;;;;;5115173;27;20126;-41
2023/07/31 03:46:55;;;;;;;5.88;2.58;;;15.80;99.90;;;;;;5115236;27;20452;-42
2023/07/31 03:49:21;;;;;;;3.70;1.90;;;15.80;99.90;;;;;;5113889;27;20659;-43
2023/07/31 03:51:46;;;;;;;2.10;1.88;;;15.80;99.90;;;;;;5114100;27;20046;-42
2023/07/31 03:54:13;;;;;;;3.58;1.70;;;15.90;99.90;;;;;;5115014;27;20136;-41
2023/07/31 03:56:39;;;;;;;2.15;1.33;;;15.80;99.90;;;;;;5114429;27;20050;-44
2023/07/31 03:59:05;;;;;;;2.10;1.20;;;15.90;99.90;;;;;;5113736;27;20095;-43
2023/07/31 04:01:30;;;;;;;4.15;1.63;;;15.80;99.90;;;;;;5113212;27;20670;-42
2023/07/31 04:03:56;;;;;;;4.40;1.60;;;15.90;99.90;;;;;;5113953;28;20314;-43
2023/07/31 04:06:21;;;;;;;3.67;2.00;;;15.90;99.90;;;;;;5112914;27;20236;-42
2023/07/31 04:08:47;;;;;;;4.80;2.40;;;15.80;99.90;;;;;;5108408;27;20474;-41
2023/07/31 04:11:13;;;;;;;16.08;3.60;;;15.80;99.90;;;;;;5114343;27;20094;-42
2023/07/31 04:13:38;;;;;;;6.13;2.85;;;15.80;99.90;;;;;;5114449;27;20468;-43
2023/07/31 04:16:04;;;;;;;10.65;4.15;;;15.90;99.90;;;;;;5115216;27;20043;-43
2023/07/31 04:18:32;;;;;;;5.82;2.92;;;15.80;99.90;;;;;;5115723;27;20047;-42
2023/07/31 04:21:01;;;;;;;6.80;3.05;;;16.00;99.90;;;;;;5099930;27;20417;-42
2023/07/31 04:23:26;;;;;;;7.38;3.70;;;15.90;99.90;;;;;;5114076;27;20051;-41
2023/07/31 04:25:52;;;;;;;7.25;3.75;;;16.00;99.90;;;;;;5115761;27;20036;-42
2023/07/31 04:28:18;;;;;;;11.70;7.43;;;16.00;99.90;;;;;;5118116;27;20191;-42
2023/07/31 04:30:43;;;;;;;13.20;5.35;;;16.00;99.90;;;;;;5118644;27;20047;-44
2023/07/31 04:33:09;;;;;;;15.10;5.28;;;16.00;99.90;;;;;;5118633;27;20050;-42
2023/07/31 04:35:35;;;;;;;11.60;5.57;;;16.00;99.90;;;;;;5118832;27;20039;-42
2023/07/31 04:38:01;;;;;;;10.93;6.13;;;15.90;99.90;;;;;;5118024;27;20047;-41
2023/07/31 04:40:26;;;;;;;8.32;5.78;;;16.00;99.90;;;;;;5118379;27;20141;-41
2023/07/31 04:42:52;;;;;;;9.50;5.53;;;16.00;99.90;;;;;;5118236;27;20050;-42
2023/07/31 04:45:18;;;;;;;10.85;5.70;;;15.90;99.90;;;;;;5117252;27;20054;-42
2023/07/31 04:47:43;;;;;;;5.80;4.60;;;15.90;99.90;;;;;;5117143;27;20058;-42
2023/07/31 04:50:09;;;;;;;10.30;4.63;;;15.90;99.90;;;;;;5099498;27;20527;-43
2023/07/31 04:52:35;;;;;;;11.52;5.35;;;16.00;99.90;;;;;;5119043;27;20051;-41
2023/07/31 04:55:01;;;;;;;10.27;5.22;;;16.00;99.90;;;;;;5117723;27;20043;-43
2023/07/31 04:57:27;;;;;;;20.52;6.70;;;15.90;99.90;;;;;;5099466;27;20409;-42
2023/07/31 04:59:52;;;;;;;15.13;7.30;;;16.00;99.90;;;;;;5117425;27;20679;-44
2023/07/31 05:02:18;;;;;;;19.58;7.65;;;16.00;99.90;;;;;;5118137;27;20718;-42
2023/07/31 05:04:43;;;;;;;26.92;8.95;;;16.10;99.90;;;;;;5116456;27;20039;-45
2023/07/31 05:07:09;;;;;;;25.33;10.05;;;16.00;99.90;;;;;;5117153;27;20523;-42
2023/07/31 05:09:35;;;;;;;29.88;10.35;;;16.00;99.90;;;;;;5110162;27;20051;-42
2023/07/31 05:12:00;;;;;;;30.15;10.60;;;16.00;99.90;;;;;;5098317;27;20605;-42
2023/07/31 05:14:26;;;;;;;29.02;10.98;;;16.20;99.90;;;;;;5098668;27;20631;-43
2023/07/31 05:16:52;;;;;;;37.85;11.30;;;16.20;99.90;;;;;;5117810;27;20050;-42
2023/07/31 05:19:18;;;;;;;41.05;11.20;;;16.30;99.90;;;;;;5115797;27;20050;-41
2023/07/31 05:21:43;;;;;;;39.78;12.25;;;16.30;99.90;;;;;;5117241;27;20497;-41
2023/07/31 05:24:10;;;;;;;42.83;12.15;;;16.30;99.90;;;;;;5110269;27;20051;-44
2023/07/31 05:26:36;;;;;;;35.60;12.38;;;16.30;99.90;;;;;;5118573;27;20445;-42
2023/07/31 05:29:02;;;;;;;33.28;10.00;;;16.30;99.90;;;;;;5116473;27;20039;-41
2023/07/31 05:31:28;;;;;;;33.75;11.23;;;16.50;99.90;;;;;;5117098;27;20614;-43
2023/07/31 05:33:53;;;;;;;27.65;10.13;;;16.50;99.90;;;;;;5117655;27;20055;-42
2023/07/31 05:36:19;;;;;;;30.92;10.55;;;16.60;99.90;;;;;;5116947;27;20908;-42
2023/07/31 05:38:45;;;;;;;36.13;11.68;;;16.40;99.90;;;;;;5098254;27;20128;-45
2023/07/31 05:41:12;;;;;;;41.60;11.60;;;16.40;99.90;;;;;;5117703;27;20051;-43
2023/07/31 05:43:38;;;;;;;33.88;10.52;;;16.60;99.90;;;;;;5117740;27;20514;-42
2023/07/31 05:46:03;;;;;;;29.35;10.02;;;16.50;99.90;;;;;;5117322;27;20060;-42
2023/07/31 05:48:29;;;;;;;30.25;9.50;;;16.70;99.90;;;;;;5114765;27;20480;-42
2023/07/31 05:50:55;;;;;;;21.65;8.65;;;16.70;99.90;;;;;;5115921;27;20512;-43
2023/07/31 05:53:20;;;;;;;24.45;10.18;;;16.80;99.90;;;;;;5116228;27;20216;-42
2023/07/31 05:55:46;;;;;;;24.52;9.32;;;16.90;99.90;;;;;;5115558;27;20165;-43
2023/07/31 05:58:12;;;;;;;26.55;7.93;;;17.00;99.90;;;;;;5115795;27;20047;-42
2023/07/31 06:00:37;;;;;;;25.60;9.18;;;17.10;99.90;;;;;;5116793;27;20146;-43
2023/07/31 06:03:04;;;;;;;20.35;8.73;;;17.10;99.90;;;;;;5115933;27;20086;-41
2023/07/31 06:05:30;;;;;;;23.80;7.80;;;17.10;99.90;;;;;;5098645;27;20055;-41
2023/07/31 06:07:56;;;;;;;27.98;8.80;;;17.10;99.90;;;;;;5114841;27;20054;-43
2023/07/31 06:10:22;;;;;;;24.30;8.57;;;17.10;99.90;;;;;;5113801;27;20066;-42
2023/07/31 06:12:47;;;;;;;24.55;8.25;;;17.10;99.90;;;;;;5116919;27;20541;-41
2023/07/31 06:15:13;;;;;;;19.80;8.35;;;17.20;99.90;;;;;;5116515;27;20043;-41
2023/07/31 06:17:39;;;;;;;22.35;8.73;;;17.20;99.90;;;;;;5115529;27;20427;-41
2023/07/31 06:20:06;;;;;;;23.08;8.38;;;17.20;99.90;;;;;;5115340;27;20388;-42
2023/07/31 06:22:32;;;;;;;23.05;7.60;;;17.30;99.90;;;;;;5116718;27;20054;-41
2023/07/31 06:24:58;;;;;;;18.60;7.97;;;17.30;99.90;;;;;;5116665;27;20043;-42
2023/07/31 06:27:24;;;;;;;24.45;9.15;;;17.40;99.90;;;;;;5115834;27;20047;-42
2023/07/31 06:29:50;;;;;;;27.95;9.93;;;17.40;99.90;;;;;;5097679;27;20058;-42
2023/07/31 06:32:15;;;;;;;18.88;9.43;;;17.50;99.90;;;;;;5116016;27;20398;-42
2023/07/31 06:34:41;;;;;;;22.98;8.98;;;17.50;99.90;;;;;;5116129;27;20050;-41
2023/07/31 06:37:07;;;;;;;22.27;9.23;;;17.60;99.90;;;;;;5116625;27;20057;-43
2023/07/31 06:39:32;;;;;;;24.67;8.88;;;17.70;99.90;;;;;;5115032;27;20049;-43
2023/07/31 06:41:58;;;;;;;15.98;7.05;;;17.70;99.90;;;;;;5114567;27;20910;-45
2023/07/31 06:44:23;;;;;;;14.10;5.50;;;17.80;99.90;;;;;;5116682;27;20721;-42
2023/07/31 06:46:50;;;;;;;8.55;4.60;;;17.70;99.90;;;;;;5116294;27;20056;-42
2023/07/31 06:49:16;;;;;;;10.30;4.53;;;17.70;99.90;;;;;;5096162;27;20046;-43
2023/07/31 06:51:42;;;;;;;8.43;3.70;;;17.60;99.90;;;;;;5115819;27;20218;-42
2023/07/31 06:54:08;;;;;;;7.22;3.53;;;17.60;99.90;;;;;;5097896;27;20063;-41
2023/07/31 06:56:34;;;;;;;10.20;3.83;;;17.50;99.90;;;;;;5115786;27;20066;-42
2023/07/31 06:59:00;;;;;;;11.32;4.70;;;17.50;99.90;;;;;;5094971;27;20465;-42
2023/07/31 07:01:25;;;;;;;9.10;4.40;;;17.40;99.90;;;;;;5115107;27;20082;-41
2023/07/31 07:03:51;;;;;;;7.65;3.53;;;17.40;99.90;;;;;;5114365;27;20036;-41
2023/07/31 07:06:17;;;;;;;9.63;4.00;;;17.30;99.90;;;;;;5114010;27;20115;-41
2023/07/31 07:08:43;;;;;;;7.85;3.05;;;17.20;99.90;;;;;;5111573;27;20047;-42
2023/07/31 07:11:09;;;;;;;7.32;2.90;;;17.30;99.90;;;;;;5096946;27;20116;-41
2023/07/31 07:13:34;;;;;;;4.55;2.72;;;17.20;99.90;;;;;;5096750;27;20081;-42
2023/07/31 07:16:00;;;;;;;5.43;2.30;;;17.20;99.90;;;;;;5096939;27;20047;-43
2023/07/31 07:18:26;;;;;;;4.63;2.05;;;17.10;99.90;;;;;;5114863;27;20055;-43
2023/07/31 07:20:53;;;;;;;3.00;1.77;;;17.10;99.90;;;;;;5115566;27;20050;-42
2023/07/31 07:23:19;;;;;;;4.18;2.03;;;17.00;99.90;;;;;;5115699;27;20055;-45
2023/07/31 07:25:45;;;;;;;3.08;1.90;;;17.00;99.90;;;;;;5115541;27;20047;-42
2023/07/31 07:28:11;;;;;;;5.32;2.70;;;16.90;99.90;;;;;;5114625;27;20177;-42
2023/07/31 07:30:37;;;;;;;5.60;3.47;;;17.00;99.90;;;;;;5115871;27;20046;-43
2023/07/31 07:33:03;;;;;;;3.80;2.58;;;17.00;99.90;;;;;;5106687;27;20396;-43
2023/07/31 07:35:29;;;;;;;4.07;2.30;;;16.90;99.90;;;;;;5095027;27;20217;-42
2023/07/31 07:37:54;;;;;;;5.07;2.67;;;16.90;99.90;;;;;;5097143;27;20648;-41
2023/07/31 07:40:21;;;;;;;5.97;2.65;;;17.00;99.90;;;;;;5105850;27;20383;-41
2023/07/31 07:42:46;;;;;;;4.32;2.75;;;16.90;99.90;;;;;;5104559;27;20221;-42
2023/07/31 07:45:12;;;;;;;3.00;1.80;;;16.90;99.90;;;;;;5094540;27;20266;-43
2023/07/31 07:47:42;;;;;;;2.50;1.80;;;16.90;99.90;;;;;;5101039;27;20506;-42
2023/07/31 07:50:08;;;;;;;4.53;1.73;;;16.90;99.90;;;;;;5091341;28;20055;-42
2023/07/31 07:52:34;;;;;;;2.40;1.40;;;17.00;99.90;;;;;;5112528;27;20051;-41
2023/07/31 07:55:00;;;;;;;2.42;1.40;;;16.90;99.90;;;;;;5113193;27;20077;-42
2023/07/31 07:57:26;;;;;;;2.00;1.20;;;16.90;99.90;;;;;;5114034;27;20043;-41
2023/07/31 07:59:51;;;;;;;4.03;1.60;;;17.00;99.90;;;;;;5113769;27;20532;-42
2023/07/31 08:02:17;;;;;;;2.25;1.50;;;17.00;99.90;;;;;;5113699;27;20134;-41
2023/07/31 08:04:43;;;;;;;2.22;1.40;;;17.00;99.90;;;;;;5114503;27;20142;-42
2023/07/31 08:07:12;;;;;;;3.22;1.60;;;17.10;99.90;;;;;;5113640;27;20051;-42
2023/07/31 08:09:37;;;;;;;3.28;1.15;;;17.10;99.90;;;;;;5094534;28;20043;-42
2023/07/31 08:12:04;;;;;;;2.13;1.33;;;17.20;99.90;;;;;;5084569;27;20111;-42
2023/07/31 08:14:29;;;;;;;1.58;1.10;;;17.20;99.90;;;;;;5092063;27;20084;-41
2023/07/31 08:16:55;;;;;;;2.47;1.20;;;17.10;99.90;;;;;;5093902;28;20052;-42
2023/07/31 08:19:21;;;;;;;2.85;1.10;;;17.00;99.90;;;;;;5092716;27;20043;-41
2023/07/31 08:21:47;;;;;;;2.72;1.00;;;17.00;99.90;;;;;;5099238;27;20050;-42
2023/07/31 08:24:12;;;;;;;2.40;1.10;;;17.00;99.90;;;;;;5098923;27;20050;-41
2023/07/31 08:26:38;;;;;;;1.25;0.95;;;17.00;99.90;;;;;;5112398;27;20552;-42
2023/07/31 08:29:04;;;;;;;1.10;1.00;;;17.00;99.90;;;;;;5103518;27;20061;-41
2023/07/31 08:31:29;;;;;;;1.85;0.70;;;17.20;99.90;;;;;;5105722;27;20532;-43
2023/07/31 08:33:56;;;;;;;1.73;0.75;;;17.20;99.90;;;;;;5094513;28;20386;-41
2023/07/31 08:36:21;;;;;;;1.95;0.93;;;17.20;99.90;;;;;;5113429;27;20070;-41
2023/07/31 08:38:47;;;;;;;0.85;0.80;;;17.20;99.90;;;;;;5111824;27;20161;-42
2023/07/31 08:41:13;;;;;;;1.30;0.80;;;17.30;99.90;;;;;;5113654;27;20047;-41
2023/07/31 08:43:39;;;;;;;1.90;1.00;;;17.40;99.90;;;;;;5114348;27;20051;-41
2023/07/31 08:46:05;;;;;;;1.40;0.88;;;17.20;99.90;;;;;;5113407;27;20561;-42
2023/07/31 08:48:32;;;;;;;2.08;0.75;;;17.40;99.90;;;;;;5112902;27;20675;-41
2023/07/31 08:50:58;;;;;;;0.90;0.60;;;17.30;99.90;;;;;;5095946;28;20075;-41
2023/07/31 08:53:23;;;;;;;0.68;0.60;;;17.60;99.90;;;;;;5113866;27;20126;-41
2023/07/31 08:55:52;;;;;;;0.93;0.55;;;17.50;99.90;;;;;;5113093;27;20057;-42
2023/07/31 08:58:18;;;;;;;2.20;0.95;;;17.50;99.90;;;;;;5112556;27;20050;-41
2023/07/31 09:00:46;;;;;;;1.38;0.60;;;17.60;99.90;;;;;;5113131;27;20138;-41
2023/07/31 09:03:18;;;;;;;1.05;0.68;;;17.60;99.90;;;;;;5094632;28;20050;-41
2023/07/31 09:05:45;;;;;;;1.65;0.55;;;17.70;99.90;;;;;;5112405;27;20035;-41
2023/07/31 09:08:14;;;;;;;1.67;0.50;;;17.80;99.90;;;;;;5095106;27;20043;-41
2023/07/31 09:10:49;;;;;;;0.60;0.50;;;17.70;99.90;;;;;;5098666;27;20043;-42
2023/07/31 09:13:16;;;;;;;2.40;0.75;;;17.80;99.90;;;;;;5116687;27;20056;-41
2023/07/31 09:15:44;;;;;;;4.20;0.80;;;17.90;99.90;;;;;;5117463;27;20035;-42
2023/07/31 09:18:10;;;;;;;1.25;0.60;;;17.80;99.90;;;;;;5118270;27;20050;-42
2023/07/31 09:20:37;;;;;;;0.63;0.50;;;17.90;99.90;;;;;;5139087;27;20061;-42
2023/07/31 09:23:08;;;;;;;0.63;0.30;;;18.00;99.90;;;;;;5137964;27;20525;-42
2023/07/31 09:25:34;;;;;;;0.60;0.35;;;18.10;99.90;;;;;;5112139;27;20047;-41
2023/07/31 09:28:05;;;;;;;0.60;0.50;;;18.20;99.90;;;;;;5113740;27;20394;-42
2023/07/31 09:30:31;;;;;;;1.90;0.70;;;18.30;99.90;;;;;;5116645;27;20061;-45
2023/07/31 09:33:06;;;;;;;2.25;1.25;;;18.50;99.90;;;;;;5092526;27;20142;-41
2023/07/31 09:35:34;;;;;;;4.18;1.13;;;18.70;99.90;;;;;;5117058;27;20043;-42
2023/07/31 09:38:08;;;;;;;5.97;1.70;;;18.90;99.90;;;;;;5115893;27;20031;-41
2023/07/31 09:40:40;;;;;;;2.25;0.80;;;18.70;99.90;;;;;;5117945;27;20145;-43
2023/07/31 09:43:08;;;;;;;8.83;2.77;;;18.80;99.90;;;;;;5137415;27;20043;-42
2023/07/31 09:45:38;;;;;;;2.05;0.90;;;18.90;99.90;;;;;;5136890;27;20102;-42
2023/07/31 09:48:16;;;;;;;1.38;0.80;;;18.90;99.90;;;;;;5136600;27;20453;-42
2023/07/31 09:50:43;;;;;;;2.15;1.00;;;19.30;99.90;;;;;;5136804;27;20438;-41
2023/07/31 09:53:09;;;;;;;2.22;0.70;;;19.40;99.90;;;;;;5137767;27;20042;-42
2023/07/31 09:55:36;;;;;;;2.53;0.70;;;19.50;99.90;;;;;;5138341;27;20035;-43
2023/07/31 09:58:07;;;;;;;0.95;0.60;;;19.60;99.90;;;;;;5136208;27;20058;-42
2023/07/31 10:00:33;;;;;;;3.25;0.70;;;19.80;99.90;;;;;;5136833;27;20058;-43
2023/07/31 10:03:01;;;;;;;1.05;0.60;;;20.00;99.90;;;;;;5134941;27;20043;-44
2023/07/31 10:05:48;;;;;;;1.25;0.50;;;20.10;99.90;;;;;;5137449;27;20484;-41
2023/07/31 10:08:15;;;;;;;2.67;1.40;;;20.00;99.90;;;;;;5128052;27;20104;-42
2023/07/31 10:10:43;;;;;;;2.83;0.70;;;19.90;99.90;;;;;;5114438;27;20051;-44
2023/07/31 10:13:09;;;;;;;1.48;0.60;;;19.70;99.90;;;;;;5096923;27;20048;-44
2023/07/31 10:15:36;;;;;;;1.35;0.93;;;19.70;99.90;;;;;;5077173;28;20443;-42
2023/07/31 10:18:02;;;;;;;2.05;0.65;;;19.70;99.90;;;;;;5094982;27;20333;-43
2023/07/31 10:20:29;;;;;;;1.20;0.68;;;19.90;99.90;;;;;;5097950;27;20043;-44
2023/07/31 10:22:56;;;;;;;2.35;0.93;;;20.10;99.90;;;;;;5099260;27;20048;-42
2023/07/31 10:25:23;;;;;;;1.23;0.80;;;20.30;99.90;;;;;;5095485;27;20117;-42
2023/07/31 10:27:50;;;;;;;3.33;1.10;;;20.30;99.90;;;;;;5095129;27;20057;-45
2023/07/31 10:30:18;;;;;;;2.40;1.10;;;20.10;99.90;;;;;;5117096;27;20097;-42
2023/07/31 10:32:45;;;;;;;4.88;0.90;;;19.90;99.90;;;;;;5098144;27;20047;-42
2023/07/31 10:35:12;;;;;;;3.05;1.20;;;19.70;99.90;;;;;;5117457;27;20039;-41
2023/07/31 10:37:42;;;;;;;4.15;1.50;;;19.70;99.90;;;;;;5097001;27;20075;-42
2023/07/31 10:40:15;;;;;;;1.80;1.05;;;19.60;99.90;;;;;;5117073;27;20096;-42
2023/07/31 10:42:57;;;;;;;3.30;1.38;;;19.50;99.90;;;;;;5097767;27;20095;-42
2023/07/31 10:45:36;;;;;;;5.22;1.02;;;19.50;99.90;;;;;;5096686;27;20445;-42
2023/07/31 10:48:06;;;;;;;2.40;0.82;;;19.30;99.90;;;;;;5104751;27;20039;-41
2023/07/31 10:50:37;;;;;;;2.47;0.70;;;19.30;99.90;;;;;;5097826;27;20557;-42
2023/07/31 10:53:03;;;;;;;2.70;0.85;;;19.20;99.90;;;;;;5095179;27;20565;-43
2023/07/31 10:55:43;;;;;;;1.10;0.90;;;19.00;99.90;;;;;;5096202;27;20469;-42
2023/07/31 10:58:13;;;;;;;4.47;1.10;;;19.00;99.90;;;;;;5060749;28;20075;-42
2023/07/31 11:00:41;;;;;;;2.72;1.70;;;18.90;99.90;;;;;;5093676;27;20119;-43
2023/07/31 11:03:10;;;;;;;4.03;2.00;;;19.00;99.90;;;;;;5094782;27;20039;-41
2023/07/31 11:05:50;;;;;;;3.70;2.80;;;19.20;99.90;;;;;;5096696;27;20693;-41
2023/07/31 11:08:20;;;;;;;3.20;2.13;;;19.30;99.90;;;;;;5100668;27;20039;-42
2023/07/31 11:10:47;;;;;;;2.40;2.20;;;19.60;99.90;;;;;;5096656;27;20039;-41
2023/07/31 11:13:14;;;;;;;2.92;2.13;;;19.80;99.90;;;;;;5100963;27;20402;-43
2023/07/31 11:15:40;;;;;;;3.08;2.05;;;20.10;99.90;;;;;;5079161;27;20052;-42
2023/07/31 11:18:07;;;;;;;2.53;2.33;;;20.30;99.90;;;;;;5096939;27;20093;-41
2023/07/31 11:20:35;;;;;;;2.95;2.65;;;20.40;99.90;;;;;;5094710;27;20043;-42
2023/07/31 11:23:02;;;;;;;4.53;3.05;;;20.40;99.90;;;;;;5101128;27;20343;-42
2023/07/31 11:25:30;;;;;;;3.17;1.85;;;20.70;99.90;;;;;;5093973;27;20431;-41
2023/07/31 11:27:57;;;;;;;2.03;1.83;;;20.70;99.90;;;;;;5094673;27;20528;-41
2023/07/31 11:30:22;;;;;;;1.52;1.00;;;20.60;99.90;;;;;;5060098;28;20047;-42
2023/07/31 11:32:49;;;;;;;2.03;1.10;;;20.40;99.90;;;;;;5079288;27;20103;-42
2023/07/31 11:35:15;;;;;;;1.88;0.93;;;20.20;99.90;;;;;;5093414;27;20036;-43
2023/07/31 11:37:42;;;;;;;2.90;1.23;;;20.00;99.90;;;;;;5094248;27;20035;-41
2023/07/31 11:40:08;;;;;;;2.33;1.60;;;20.20;99.90;;;;;;5095483;27;20050;-41
2023/07/31 11:42:35;;;;;;;4.18;1.50;;;20.10;99.90;;;;;;5096829;27;20062;-41
2023/07/31 11:45:10;;;;;;;6.00;1.70;;;20.10;99.90;;;;;;5095714;27;20105;-42
2023/07/31 11:47:37;;;;;;;3.28;1.98;;;20.00;99.90;;;;;;5094937;27;20040;-41
2023/07/31 11:50:05;;;;;;;8.75;2.75;;;20.00;99.90;;;;;;5094148;27;20129;-41
2023/07/31 11:52:36;;;;;;;3.72;2.42;;;20.10;99.90;;;;;;5099162;27;20108;-41
2023/07/31 11:55:02;;;;;;;3.92;2.58;;;20.20;99.90;;;;;;5114317;27;20054;-42
2023/07/31 11:57:28;;;;;;;4.93;2.90;;;20.30;99.90;;;;;;5112747;27;20043;-43
2023/07/31 11:59:55;;;;;;;7.93;2.50;;;20.20;99.90;;;;;;5112295;27;20419;-42
2023/07/31 12:02:22;;;;;;;6.95;2.72;;;20.00;99.90;;;;;;5111118;27;20159;-41
2023/07/31 12:04:48;;;;;;;8.88;3.17;;;20.10;99.90;;;;;;5113206;27;20054;-44
2023/07/31 12:07:14;;;;;;;8.77;3.03;;;20.00;99.90;;;;;;5114187;27;20217;-42
2023/07/31 12:09:54;;;;;;;7.43;2.72;;;20.10;99.90;;;;;;5112145;27;20115;-42
2023/07/31 12:12:21;;;;;;;8.40;3.45;;;20.00;99.90;;;;;;5091141;27;20043;-41
2023/07/31 12:14:48;;;;;;;7.47;2.55;;;19.90;99.90;;;;;;5107695;27;20067;-42
2023/07/31 12:17:14;;;;;;;12.38;2.53;;;19.90;99.90;;;;;;5126610;27;20485;-42
2023/07/31 12:19:40;;;;;;;5.30;2.28;;;19.70;99.90;;;;;;5129102;27;20051;-42
2023/07/31 12:22:16;;;;;;;4.78;2.30;;;19.70;99.90;;;;;;5135116;27;20114;-42
2023/07/31 12:24:46;;;;;;;4.18;2.50;;;19.80;99.90;;;;;;5110024;27;20035;-41
2023/07/31 12:27:14;;;;;;;5.13;2.38;;;19.80;99.90;;;;;;5112294;27;20366;-41
2023/07/31 12:29:41;;;;;;;4.90;2.47;;;19.90;99.90;;;;;;5134512;27;20047;-41
2023/07/31 12:32:28;;;;;;;5.13;2.42;;;20.10;99.90;;;;;;5132819;27;20038;-41
2023/07/31 12:34:54;;;;;;;5.95;2.63;;;20.10;99.90;;;;;;5132587;27;20422;-42
2023/07/31 12:37:21;;;;;;;7.38;2.88;;;20.20;99.90;;;;;;5131359;27;20078;-41
2023/07/31 12:39:47;;;;;;;6.20;2.80;;;20.20;99.90;;;;;;5125974;27;20051;-42
2023/07/31 12:42:13;;;;;;;8.10;3.10;;;20.10;99.90;;;;;;5117352;27;20394;-43